createdAt,value
2022-12-29T00:02:17.410Z,6.76
2022-12-29T00:05:04.589Z,6.78
2022-12-29T00:07:51.078Z,6.81
2022-12-29T00:10:38.093Z,6.77
2022-12-29T00:13:47.060Z,6.80
2022-12-29T00:16:35.475Z,6.84
2022-12-29T00:19:41.018Z,6.93
2022-12-29T00:22:46.392Z,6.90
2022-12-29T00:25:52.118Z,6.96
2022-12-29T00:28:57.138Z,6.90
2022-12-29T00:32:02.441Z,6.87
2022-12-29T00:35:07.560Z,6.91
2022-12-29T00:38:22.681Z,6.93
2022-12-29T00:41:28.905Z,6.94
2022-12-29T00:44:18.316Z,6.95
2022-12-29T00:47:05.562Z,6.98
2022-12-29T00:49:54.006Z,6.92
2022-12-29T00:52:40.816Z,6.88
2022-12-29T00:55:27.470Z,6.92
2022-12-29T00:58:14.104Z,6.93
2022-12-29T01:01:04.962Z,6.92
2022-12-29T01:03:54.115Z,6.88
2022-12-29T01:06:43.847Z,6.88
2022-12-29T01:09:49.484Z,6.93
2022-12-29T01:12:51.150Z,6.89
2022-12-29T01:15:39.226Z,6.83
2022-12-29T01:18:27.778Z,6.78
2022-12-29T01:21:14.392Z,6.76
2022-12-29T01:24:00.976Z,6.72
2022-12-29T01:26:51.812Z,6.73
2022-12-29T01:29:38.453Z,6.75
2022-12-29T01:32:25.465Z,6.81
2022-12-29T01:35:12.192Z,6.80
2022-12-29T01:42:23.869Z,6.71
2022-12-29T01:45:18.282Z,6.73
2022-12-29T01:48:07.345Z,6.70
2022-12-29T01:50:55.710Z,6.74
2022-12-29T01:53:44.061Z,6.74
2022-12-29T01:56:48.875Z,6.78
2022-12-29T01:59:41.579Z,6.71
2022-12-29T02:02:35.967Z,6.73
2022-12-29T02:05:41.890Z,6.74
2022-12-29T02:08:30.381Z,6.76
2022-12-29T02:11:17.520Z,6.80
2022-12-29T02:14:10.617Z,6.78
2022-12-29T02:17:25.483Z,6.71
2022-12-29T02:20:33.494Z,6.69
2022-12-29T02:23:50.249Z,6.61
2022-12-29T02:27:15.670Z,6.51
2022-12-29T02:30:06.368Z,6.45
2022-12-29T02:33:06.298Z,6.44
2022-12-29T02:36:15.733Z,6.37
2022-12-29T02:39:24.453Z,6.29
2022-12-29T02:42:24.760Z,6.21
2022-12-29T02:45:24.198Z,6.21
2022-12-29T02:48:21.821Z,6.11
2022-12-29T02:55:57.586Z,5.92
2022-12-29T02:58:44.658Z,5.77
2022-12-29T03:02:19.302Z,5.78
2022-12-29T03:05:22.379Z,5.68
2022-12-29T03:10:05.876Z,5.62
2022-12-29T03:14:47.162Z,5.41
2022-12-29T03:17:55.497Z,5.24
2022-12-29T03:22:19.793Z,5.21
2022-12-29T03:37:17.794Z,5.04
2022-12-29T03:40:12.987Z,4.87
2022-12-29T03:44:12.053Z,4.69
2022-12-29T03:58:35.932Z,4.62
2022-12-29T04:01:30.471Z,4.56
2022-12-29T04:05:41.139Z,4.49
2022-12-29T04:09:05.035Z,4.39
2022-12-29T04:13:03.659Z,4.38
2022-12-29T04:15:50.300Z,4.31
2022-12-29T04:18:37.070Z,4.37
2022-12-29T04:21:23.368Z,4.36
2022-12-29T04:24:10.705Z,4.42
2022-12-29T04:28:24.767Z,4.48
2022-12-29T04:31:46.903Z,4.46
2022-12-29T04:35:08.947Z,4.40
2022-12-29T04:37:55.576Z,4.33
2022-12-29T04:41:13.814Z,4.37
2022-12-29T04:44:01.499Z,4.34
2022-12-29T04:46:48.361Z,4.32
2022-12-29T04:49:35.100Z,4.30
2022-12-29T04:52:22.681Z,4.40
2022-12-29T04:55:09.528Z,4.44
2022-12-29T04:57:56.764Z,4.35
2022-12-29T05:00:44.869Z,4.37
2022-12-29T05:03:33.907Z,4.35
2022-12-29T05:07:23.491Z,4.38
2022-12-29T05:10:11.599Z,4.33
2022-12-29T05:12:58.972Z,4.33
2022-12-29T05:15:53.211Z,4.36
2022-12-29T05:18:39.691Z,4.35
2022-12-29T05:21:26.334Z,4.37
2022-12-29T05:24:53.481Z,4.41
2022-12-29T05:27:40.518Z,4.25
2022-12-29T05:30:26.910Z,4.31
2022-12-29T05:33:13.816Z,4.33
2022-12-29T05:36:10.759Z,4.34
2022-12-29T05:39:13.591Z,4.34
2022-12-29T05:43:11.453Z,4.29
2022-12-29T05:47:08.937Z,4.31
2022-12-29T05:51:28.809Z,4.20
2022-12-29T05:54:45.170Z,4.23
2022-12-29T05:58:42.279Z,4.20
2022-12-29T06:02:43.436Z,4.27
2022-12-29T06:05:31.145Z,4.28
2022-12-29T06:08:17.609Z,4.32
2022-12-29T06:11:04.817Z,4.43
2022-12-29T06:13:53.207Z,4.45
2022-12-29T06:18:08.752Z,4.52
2022-12-29T06:21:41.041Z,4.42
2022-12-29T06:25:40.367Z,4.40
2022-12-29T06:29:56.076Z,4.45
2022-12-29T06:32:41.362Z,4.45
2022-12-29T06:35:26.178Z,4.50
2022-12-29T06:38:11.399Z,4.53
2022-12-29T06:40:56.658Z,4.52
2022-12-29T06:46:07.404Z,4.58
2022-12-29T06:48:54.043Z,4.53
2022-12-29T06:51:41.788Z,4.60
2022-12-29T06:54:28.457Z,4.64
2022-12-29T06:57:15.190Z,4.67
2022-12-29T07:00:08.003Z,4.74
2022-12-29T07:02:56.381Z,4.69
2022-12-29T07:05:43.626Z,4.73
2022-12-29T07:08:30.251Z,4.88
2022-12-29T07:12:53.151Z,4.78
2022-12-29T07:15:41.900Z,4.78
2022-12-29T07:18:28.451Z,4.81
2022-12-29T07:21:18.589Z,4.81
2022-12-29T07:24:05.666Z,4.89
2022-12-29T07:26:53.006Z,4.89
2022-12-29T07:29:39.476Z,5.01
2022-12-29T07:32:26.126Z,5.00
2022-12-29T07:35:13.516Z,5.05
2022-12-29T07:37:59.827Z,4.99
2022-12-29T07:46:55.112Z,4.93
2022-12-29T09:51:07.643Z,8.08
2022-12-29T09:54:51.639Z,7.96
2022-12-29T09:57:59.254Z,7.91
2022-12-29T10:02:21.707Z,7.98
2022-12-29T10:06:03.079Z,7.99
2022-12-29T10:21:24.813Z,8.18
2022-12-29T10:24:30.764Z,8.08
2022-12-29T11:19:46.076Z,8.78
2022-12-29T11:33:38.065Z,8.96
2022-12-29T11:36:39.820Z,8.85
2022-12-29T12:13:11.516Z,9.05
2022-12-29T13:09:28.029Z,9.63
2022-12-29T13:12:46.987Z,9.59
2022-12-29T13:16:39.593Z,9.49
2022-12-29T13:30:58.951Z,9.65
2022-12-29T13:35:00.729Z,9.54
2022-12-29T13:38:06.356Z,9.42
2022-12-29T14:34:08.053Z,10.01
2022-12-29T14:37:04.241Z,9.77
2022-12-29T14:41:27.384Z,9.74
2022-12-29T14:45:43.141Z,9.63
2022-12-29T14:59:33.212Z,9.83
2022-12-29T15:02:39.455Z,9.75
2022-12-29T15:06:40.249Z,9.66
2022-12-29T15:10:50.054Z,9.67
2022-12-29T15:15:19.086Z,9.59
2022-12-29T15:18:26.923Z,9.54
2022-12-29T15:22:25.124Z,9.53
2022-12-29T15:26:45.801Z,9.55
2022-12-29T15:30:24.317Z,9.49
2022-12-29T15:34:12.093Z,9.55
2022-12-29T15:37:24.289Z,9.53
2022-12-29T15:40:25.349Z,9.61
2022-12-29T15:43:12.601Z,9.66
2022-12-29T15:46:02.345Z,9.65
2022-12-29T15:48:51.461Z,9.66
2022-12-29T15:51:40.798Z,9.65
2022-12-29T15:54:32.195Z,9.67
2022-12-29T15:57:29.847Z,9.64
2022-12-29T16:00:47.420Z,9.59
2022-12-29T16:03:37.800Z,9.52
2022-12-29T16:06:33.550Z,9.50
2022-12-29T16:09:30.282Z,9.49
2022-12-29T16:14:59.121Z,9.49
2022-12-29T16:29:58.827Z,9.47
2022-12-29T16:33:02.134Z,9.26
2022-12-29T16:36:40.642Z,9.31
2022-12-29T16:41:02.994Z,9.25
2022-12-29T16:44:30.560Z,9.19
2022-12-29T16:47:22.064Z,9.11
2022-12-29T16:50:17.236Z,9.24
2022-12-29T16:53:07.510Z,9.30
2022-12-29T16:55:56.666Z,9.33
2022-12-29T17:00:47.779Z,9.37
2022-12-29T17:04:14.286Z,9.34
2022-12-29T17:08:23.958Z,9.27
2022-12-29T17:12:26.445Z,9.25
2022-12-29T17:16:14.910Z,9.22
2022-12-29T17:19:00.041Z,9.27
2022-12-29T17:21:45.488Z,9.34
2022-12-29T17:24:30.866Z,9.40
2022-12-29T17:27:58.226Z,9.48
2022-12-29T17:30:43.852Z,9.46
2022-12-29T17:33:35.878Z,9.52
2022-12-29T17:36:20.796Z,9.49
2022-12-29T17:39:06.410Z,9.57
2022-12-29T17:41:51.889Z,9.62
2022-12-29T17:45:05.795Z,9.52
2022-12-29T17:48:32.386Z,9.49
2022-12-29T17:51:21.889Z,9.45
2022-12-29T17:54:32.430Z,9.45
2022-12-29T17:57:20.625Z,9.46
2022-12-29T18:00:10.244Z,9.54
2022-12-29T19:10:13.866Z,9.33
2022-12-29T19:13:30.919Z,9.25
2022-12-29T19:17:11.841Z,9.12
2022-12-29T19:20:35.658Z,9.04
2022-12-29T19:24:34.347Z,9.06
2022-12-29T19:28:30.856Z,9.03
2022-12-29T19:43:04.783Z,9.25
2022-12-29T19:46:08.239Z,9.12
2022-12-29T19:50:10.489Z,9.01
2022-12-29T20:04:47.558Z,9.16
2022-12-29T20:18:30.375Z,9.41
2022-12-29T20:31:55.133Z,9.53
2022-12-29T20:34:55.767Z,9.36
2022-12-29T20:49:59.104Z,9.41
2022-12-29T20:52:58.451Z,9.33
2022-12-29T20:56:47.559Z,9.21
2022-12-29T21:00:20.581Z,9.19
2022-12-29T21:04:23.918Z,9.19
2022-12-29T21:08:02.023Z,9.24
2022-12-29T21:11:34.711Z,9.13
2022-12-29T21:15:32.452Z,9.08
2022-12-29T21:19:28.671Z,9.16
2022-12-29T21:23:26.541Z,9.20
2022-12-29T21:27:22.339Z,9.28
2022-12-29T21:31:27.672Z,9.29
2022-12-29T21:35:30.831Z,9.32
2022-12-29T21:49:30.284Z,9.57
2022-12-29T22:03:23.722Z,9.87
2022-12-29T22:16:51.765Z,9.82
2022-12-29T22:19:52.419Z,9.69
2022-12-29T22:34:00.647Z,9.76
2022-12-29T22:37:16.499Z,9.63
2022-12-29T22:56:16.951Z,9.73
2022-12-29T22:59:34.853Z,9.71
2022-12-29T23:27:41.332Z,9.31
2022-12-29T23:41:41.065Z,9.39
2022-12-29T23:45:00.148Z,9.29
2022-12-29T23:48:22.951Z,9.19
2022-12-29T23:52:04.440Z,9.11
2022-12-29T23:55:33.730Z,9.03
2022-12-29T23:58:22.376Z,8.95
